Time,TemperatureF,DewpointF,PressureIn,WindDirection,WindDirectionDegrees,WindSpeedMPH,WindSpeedGustMPH,Humidity,HourlyPrecipIn,Conditions,Clouds,dailyrainin,SolarRadiationWatts/m^2,SoftwareType,DateUTC
2013-01-29 00:01:00,16.0,14.0,-100.00,SW,214,9.0,13.0,90,0.00,,,0.00,0.000000,,2013-01-29 07:01:00,
2013-01-29 00:32:00,16.0,13.0,-100.00,SW,217,7.0,12.0,89,0.00,,,0.00,0.000000,,2013-01-29 07:32:00,
2013-01-29 00:42:00,16.0,13.0,-100.00,SW,217,7.0,12.0,89,0.00,,,0.00,0.000000,,2013-01-29 07:42:00,
2013-01-29 00:52:00,16.0,13.0,-100.00,SW,217,7.0,12.0,89,0.00,,,0.00,0.000000,,2013-01-29 07:52:00,
2013-01-29 01:01:00,16.0,13.0,-100.00,SW,217,7.0,12.0,89,0.00,,,0.00,0.000000,,2013-01-29 08:01:00,
2013-01-29 01:32:00,16.0,13.0,-100.00,SSW,213,5.0,9.0,89,0.00,,,0.00,0.000000,,2013-01-29 08:32:00,
2013-01-29 01:42:00,16.0,13.0,-100.00,SSW,213,5.0,9.0,89,0.00,,,0.00,0.000000,,2013-01-29 08:42:00,
2013-01-29 01:52:00,16.0,13.0,-100.00,SSW,213,5.0,9.0,89,0.00,,,0.00,0.000000,,2013-01-29 08:52:00,
2013-01-29 02:01:00,16.0,13.0,-100.00,SSW,213,5.0,9.0,89,0.00,,,0.00,0.000000,,2013-01-29 09:01:00,
2013-01-29 02:32:00,16.0,13.0,-100.00,SW,225,5.0,9.0,89,0.00,,,0.00,0.000000,,2013-01-29 09:32:00,
2013-01-29 02:42:00,16.0,13.0,-100.00,SW,225,5.0,9.0,89,0.00,,,0.00,0.000000,,2013-01-29 09:42:00,
2013-01-29 02:52:00,16.0,13.0,-100.00,SW,225,5.0,9.0,89,0.00,,,0.00,0.000000,,2013-01-29 09:52:00,
2013-01-29 03:01:00,16.0,13.0,-100.00,SW,225,5.0,9.0,89,0.00,,,0.00,0.000000,,2013-01-29 10:01:00,
2013-01-29 03:32:00,15.0,12.0,-100.00,WSW,238,5.0,9.0,89,0.00,,,0.00,0.000000,,2013-01-29 10:32:00,
2013-01-29 03:42:00,15.0,12.0,-100.00,WSW,238,5.0,9.0,89,0.00,,,0.00,0.000000,,2013-01-29 10:42:00,
2013-01-29 03:52:00,15.0,12.0,-100.00,WSW,238,5.0,9.0,89,0.00,,,0.00,0.000000,,2013-01-29 10:52:00,
2013-01-29 04:01:00,15.0,12.0,-100.00,WSW,238,5.0,9.0,89,0.00,,,0.00,0.000000,,2013-01-29 11:01:00,
2013-01-29 04:32:00,16.0,13.0,-100.00,SW,226,6.0,10.0,89,0.00,,,0.00,0.000000,,2013-01-29 11:32:00,
2013-01-29 04:42:00,16.0,13.0,-100.00,SW,226,6.0,10.0,89,0.00,,,0.00,0.000000,,2013-01-29 11:42:00,
2013-01-29 04:52:00,16.0,13.0,-100.00,SW,226,6.0,10.0,89,0.00,,,0.00,0.000000,,2013-01-29 11:52:00,
2013-01-29 05:02:00,16.0,13.0,-100.00,SW,226,6.0,10.0,89,0.00,,,0.00,0.000000,,2013-01-29 12:02:00,
2013-01-29 05:33:00,16.0,14.0,-100.00,SW,235,5.0,8.0,90,0.00,,,0.00,0.000000,,2013-01-29 12:33:00,
2013-01-29 05:43:00,16.0,14.0,-100.00,SW,235,5.0,8.0,90,0.00,,,0.00,0.000000,,2013-01-29 12:43:00,
2013-01-29 05:52:00,16.0,14.0,-100.00,SW,235,5.0,8.0,90,0.00,,,0.00,0.000000,,2013-01-29 12:52:00,
2013-01-29 06:01:00,16.0,14.0,-100.00,SW,235,5.0,8.0,90,0.00,,,0.00,0.000000,,2013-01-29 13:01:00,
2013-01-29 06:32:00,16.0,13.0,-100.00,SW,216,4.0,6.0,89,0.00,,,0.00,0.000000,,2013-01-29 13:32:00,
2013-01-29 06:43:00,16.0,13.0,-100.00,SW,216,4.0,6.0,89,0.00,,,0.00,0.000000,,2013-01-29 13:43:00,
2013-01-29 06:52:00,16.0,13.0,-100.00,SW,216,4.0,6.0,89,0.00,,,0.00,0.000000,,2013-01-29 13:52:00,
2013-01-29 07:01:00,16.0,13.0,-100.00,SW,216,4.0,6.0,89,0.00,,,0.00,0.000000,,2013-01-29 14:01:00,
2013-01-29 07:33:00,16.0,14.0,-100.00,WNW,290,3.0,6.0,90,0.00,,,0.00,0.000000,,2013-01-29 14:33:00,
2013-01-29 07:43:00,16.0,14.0,-100.00,WNW,290,3.0,6.0,90,0.00,,,0.00,0.000000,,2013-01-29 14:43:00,
2013-01-29 07:52:00,16.0,14.0,-100.00,WNW,290,3.0,6.0,90,0.00,,,0.00,0.000000,,2013-01-29 14:52:00,
2013-01-29 08:02:00,16.0,14.0,-100.00,WNW,290,3.0,6.0,90,0.00,,,0.00,0.000000,,2013-01-29 15:02:00,
2013-01-29 08:33:00,16.0,13.0,-100.00,West,261,4.0,6.0,89,0.00,,,0.00,0.000000,,2013-01-29 15:33:00,
2013-01-29 08:43:00,16.0,13.0,-100.00,West,261,4.0,6.0,89,0.00,,,0.00,0.000000,,2013-01-29 15:43:00,
2013-01-29 08:53:00,16.0,13.0,-100.00,West,261,4.0,6.0,89,0.00,,,0.00,0.000000,,2013-01-29 15:53:00,
2013-01-29 09:02:00,16.0,13.0,-100.00,West,261,4.0,6.0,89,0.00,,,0.00,0.000000,,2013-01-29 16:02:00,
2013-01-29 09:33:00,16.0,13.0,-100.00,SSW,203,6.0,7.0,89,0.00,,,0.00,25.000000,,2013-01-29 16:33:00,
2013-01-29 09:43:00,16.0,13.0,-100.00,SSW,203,6.0,7.0,89,0.00,,,0.00,25.000000,,2013-01-29 16:43:00,
2013-01-29 09:53:00,16.0,13.0,-100.00,SSW,203,6.0,7.0,89,0.00,,,0.00,25.000000,,2013-01-29 16:53:00,
2013-01-29 10:02:00,16.0,13.0,-100.00,SSW,203,6.0,7.0,89,0.00,,,0.00,25.000000,,2013-01-29 17:02:00,
2013-01-29 10:33:00,17.0,14.0,-100.00,North,5,3.0,7.0,89,0.00,,,0.00,22.000000,,2013-01-29 17:33:00,
2013-01-29 10:42:00,17.0,14.0,-100.00,North,5,3.0,7.0,89,0.00,,,0.00,22.000000,,2013-01-29 17:42:00,
2013-01-29 10:52:00,17.0,14.0,-100.00,North,5,3.0,7.0,89,0.00,,,0.00,22.000000,,2013-01-29 17:52:00,
2013-01-29 11:03:00,17.0,14.0,-100.00,North,5,3.0,7.0,89,0.00,,,0.00,22.000000,,2013-01-29 18:03:00,
2013-01-29 11:33:00,18.0,15.0,-100.00,SW,235,3.0,6.0,89,0.00,,,0.00,31.000000,,2013-01-29 18:33:00,
2013-01-29 11:42:00,18.0,15.0,-100.00,SW,235,3.0,6.0,89,0.00,,,0.00,31.000000,,2013-01-29 18:42:00,
2013-01-29 11:52:00,18.0,15.0,-100.00,SW,235,3.0,6.0,89,0.00,,,0.00,31.000000,,2013-01-29 18:52:00,
2013-01-29 12:01:00,18.0,15.0,-100.00,SW,235,3.0,6.0,89,0.00,,,0.00,31.000000,,2013-01-29 19:01:00,
2013-01-29 12:33:00,18.0,15.0,-100.00,West,281,12.0,18.0,88,0.00,,,0.00,48.000000,,2013-01-29 19:33:00,
2013-01-29 12:42:00,18.0,15.0,-100.00,West,281,12.0,18.0,88,0.00,,,0.00,48.000000,,2013-01-29 19:42:00,
2013-01-29 12:52:00,18.0,15.0,-100.00,West,281,12.0,18.0,88,0.00,,,0.00,48.000000,,2013-01-29 19:52:00,
2013-01-29 13:01:00,18.0,15.0,-100.00,West,281,12.0,18.0,88,0.00,,,0.00,48.000000,,2013-01-29 20:01:00,
2013-01-29 13:33:00,17.0,14.0,-100.00,NW,324,16.0,22.0,87,0.00,,,0.00,252.000000,,2013-01-29 20:33:00,
2013-01-29 13:42:00,17.0,14.0,-100.00,NW,324,16.0,22.0,87,0.00,,,0.00,252.000000,,2013-01-29 20:42:00,
2013-01-29 13:53:00,17.0,14.0,-100.00,NW,324,16.0,22.0,87,0.00,,,0.00,252.000000,,2013-01-29 20:53:00,
2013-01-29 14:02:00,17.0,14.0,-100.00,NW,324,16.0,22.0,87,0.00,,,0.00,252.000000,,2013-01-29 21:02:00,
2013-01-29 14:34:00,20.0,16.0,-100.00,NW,306,14.0,21.0,84,0.00,,,0.00,311.000000,,2013-01-29 21:34:00,
2013-01-29 14:42:00,20.0,16.0,-100.00,NW,306,14.0,21.0,84,0.00,,,0.00,311.000000,,2013-01-29 21:42:00,
2013-01-29 14:53:00,20.0,16.0,-100.00,NW,306,14.0,21.0,84,0.00,,,0.00,311.000000,,2013-01-29 21:53:00,
2013-01-29 15:02:00,20.0,16.0,-100.00,NW,306,14.0,21.0,84,0.00,,,0.00,311.000000,,2013-01-29 22:02:00,
2013-01-29 15:33:00,19.0,14.0,-100.00,WNW,292,8.0,19.0,82,0.00,,,0.00,230.000000,,2013-01-29 22:33:00,
2013-01-29 15:42:00,19.0,14.0,-100.00,WNW,292,8.0,19.0,82,0.00,,,0.00,230.000000,,2013-01-29 22:42:00,
2013-01-29 15:53:00,19.0,14.0,-100.00,WNW,292,8.0,19.0,82,0.00,,,0.00,230.000000,,2013-01-29 22:53:00,
2013-01-29 16:02:00,19.0,14.0,-100.00,WNW,292,8.0,19.0,82,0.00,,,0.00,230.000000,,2013-01-29 23:02:00,
2013-01-29 16:33:00,18.0,16.0,-100.00,SW,229,7.0,22.0,90,0.00,,,0.00,107.000000,,2013-01-29 23:33:00,
2013-01-29 16:42:00,18.0,16.0,-100.00,SW,229,7.0,22.0,90,0.00,,,0.00,107.000000,,2013-01-29 23:42:00,
2013-01-29 16:53:00,18.0,16.0,-100.00,SW,229,7.0,22.0,90,0.00,,,0.00,107.000000,,2013-01-29 23:53:00,
2013-01-29 17:02:00,18.0,16.0,-100.00,SW,229,7.0,22.0,90,0.00,,,0.00,107.000000,,2013-01-30 00:02:00,
2013-01-29 17:33:00,18.0,16.0,-100.00,SW,220,7.0,16.0,90,0.00,,,0.00,76.000000,,2013-01-30 00:33:00,
2013-01-29 17:43:00,18.0,16.0,-100.00,SW,220,7.0,16.0,90,0.00,,,0.00,76.000000,,2013-01-30 00:43:00,
2013-01-29 17:52:00,18.0,16.0,-100.00,SW,220,7.0,16.0,90,0.00,,,0.00,76.000000,,2013-01-30 00:52:00,
2013-01-29 18:01:00,18.0,16.0,-100.00,SW,220,7.0,16.0,90,0.00,,,0.00,76.000000,,2013-01-30 01:01:00,
2013-01-29 18:32:00,16.0,13.0,-100.00,SW,223,7.0,15.0,89,0.00,,,0.00,5.000000,,2013-01-30 01:32:00,
2013-01-29 18:42:00,16.0,13.0,-100.00,SW,223,7.0,15.0,89,0.00,,,0.00,5.000000,,2013-01-30 01:42:00,
2013-01-29 18:52:00,16.0,13.0,-100.00,SW,223,7.0,15.0,89,0.00,,,0.00,5.000000,,2013-01-30 01:52:00,
2013-01-29 19:02:00,16.0,13.0,-100.00,SW,223,7.0,15.0,89,0.00,,,0.00,5.000000,,2013-01-30 02:02:00,
2013-01-29 19:33:00,16.0,13.0,-100.00,South,189,8.0,12.0,89,0.00,,,0.00,0.000000,,2013-01-30 02:33:00,
2013-01-29 19:42:00,16.0,13.0,-100.00,South,189,8.0,12.0,89,0.00,,,0.00,0.000000,,2013-01-30 02:42:00,
2013-01-29 19:53:00,16.0,13.0,-100.00,South,189,8.0,12.0,89,0.00,,,0.00,0.000000,,2013-01-30 02:53:00,
2013-01-29 20:02:00,16.0,13.0,-100.00,South,189,8.0,12.0,89,0.00,,,0.00,0.000000,,2013-01-30 03:02:00,
2013-01-29 20:32:00,16.0,14.0,-100.00,South,191,9.0,14.0,90,0.00,,,0.00,0.000000,,2013-01-30 03:32:00,
2013-01-29 20:42:00,16.0,14.0,-100.00,South,191,9.0,14.0,90,0.00,,,0.00,0.000000,,2013-01-30 03:42:00,
2013-01-29 20:52:00,16.0,14.0,-100.00,South,191,9.0,14.0,90,0.00,,,0.00,0.000000,,2013-01-30 03:52:00,
2013-01-29 21:01:00,16.0,14.0,-100.00,South,191,9.0,14.0,90,0.00,,,0.00,0.000000,,2013-01-30 04:01:00,
2013-01-29 21:32:00,17.0,15.0,-100.00,SSW,193,10.0,14.0,91,0.00,,,0.00,0.000000,,2013-01-30 04:32:00,
2013-01-29 21:42:00,17.0,15.0,-100.00,SSW,193,10.0,14.0,91,0.00,,,0.00,0.000000,,2013-01-30 04:42:00,
2013-01-29 21:52:00,17.0,15.0,-100.00,SSW,193,10.0,14.0,91,0.00,,,0.00,0.000000,,2013-01-30 04:52:00,
2013-01-29 22:03:00,17.0,15.0,-100.00,SSW,193,10.0,14.0,91,0.00,,,0.00,0.000000,,2013-01-30 05:03:00,
2013-01-29 22:32:00,17.0,15.0,-100.00,SSW,200,9.0,13.0,91,0.00,,,0.00,0.000000,,2013-01-30 05:32:00,
2013-01-29 22:43:00,17.0,15.0,-100.00,SSW,200,9.0,13.0,91,0.00,,,0.00,0.000000,,2013-01-30 05:43:00,
2013-01-29 22:52:00,17.0,15.0,-100.00,SSW,200,9.0,13.0,91,0.00,,,0.00,0.000000,,2013-01-30 05:52:00,
2013-01-29 23:02:00,17.0,15.0,-100.00,SSW,200,9.0,13.0,91,0.00,,,0.00,0.000000,,2013-01-30 06:02:00,
2013-01-29 23:32:00,17.0,15.0,-100.00,South,189,7.0,11.0,91,0.00,,,0.00,0.000000,,2013-01-30 06:32:00,
2013-01-29 23:42:00,17.0,15.0,-100.00,South,189,7.0,11.0,91,0.00,,,0.00,0.000000,,2013-01-30 06:42:00,
2013-01-29 23:52:00,17.0,15.0,-100.00,South,189,7.0,11.0,91,0.00,,,0.00,0.000000,,2013-01-30 06:52:00,